createdAt,value
2022-09-01T00:00:18.655Z,9.50
2022-09-01T00:02:49.998Z,10.50
2022-09-01T00:05:19.048Z,10.27
2022-09-01T00:07:47.121Z,9.27
2022-09-01T00:10:15.265Z,17.93
2022-09-01T00:12:45.413Z,10.30
2022-09-01T00:15:14.570Z,14.20
2022-09-01T00:17:42.759Z,10.77
2022-09-01T00:20:14.941Z,15.00
2022-09-01T00:22:46.373Z,12.63
2022-09-01T00:25:14.470Z,11.53
2022-09-01T00:27:42.531Z,9.73
2022-09-01T00:30:11.504Z,12.70
2022-09-01T00:32:39.721Z,9.37
2022-09-01T00:35:09.373Z,8.50
2022-09-01T00:37:39.331Z,15.10
2022-09-01T00:40:09.565Z,14.20
2022-09-01T00:42:37.643Z,10.00
2022-09-01T00:45:06.887Z,9.60
2022-09-01T00:47:37.497Z,10.00
2022-09-01T00:50:08.650Z,15.00
2022-09-01T00:52:42.024Z,10.80
2022-09-01T00:55:14.130Z,9.10
2022-09-01T00:57:42.416Z,10.03
2022-09-01T01:00:13.623Z,12.50
2022-09-01T01:02:44.832Z,10.37
2022-09-01T01:05:15.335Z,8.83
2022-09-01T01:07:47.492Z,11.60
2022-09-01T01:10:18.856Z,10.47
2022-09-01T01:12:47.029Z,8.60
2022-09-01T01:15:17.245Z,14.43
2022-09-01T01:17:45.571Z,9.17
2022-09-01T01:20:35.677Z,12.87
2022-09-01T01:23:12.040Z,33.07
2022-09-01T01:25:44.218Z,9.13
2022-09-01T01:28:18.417Z,11.43
2022-09-01T01:30:54.016Z,11.03
2022-09-01T01:33:24.405Z,14.40
2022-09-01T01:35:57.417Z,21.00
2022-09-01T01:38:30.062Z,9.33
2022-09-01T01:41:01.353Z,18.03
2022-09-01T01:43:29.929Z,12.13
2022-09-01T01:46:02.585Z,10.30
2022-09-01T01:48:36.667Z,24.93
2022-09-01T01:51:05.971Z,35.17
2022-09-01T01:53:34.939Z,84.73
2022-09-01T01:56:12.248Z,157.50
2022-09-01T01:58:41.586Z,103.77
2022-09-01T02:01:13.080Z,116.07
2022-09-01T02:03:42.098Z,22.50
2022-09-01T02:06:12.012Z,19.10
2022-09-01T02:08:41.227Z,101.93
2022-09-01T02:11:13.107Z,84.43
2022-09-01T02:13:41.162Z,92.40
2022-09-01T02:16:12.744Z,82.93
2022-09-01T02:18:44.303Z,60.97
2022-09-01T02:21:18.798Z,33.23
2022-09-01T02:23:49.593Z,25.10
2022-09-01T02:26:19.199Z,50.40
2022-09-01T02:28:54.821Z,78.20
2022-09-01T02:31:28.841Z,80.87
2022-09-01T02:34:01.137Z,54.47
2022-09-01T02:36:32.725Z,71.77
2022-09-01T02:39:01.650Z,29.00
2022-09-01T02:41:34.316Z,27.73
2022-09-01T02:44:03.876Z,16.00
2022-09-01T02:46:32.032Z,8.83
2022-09-01T02:49:01.532Z,10.90
2022-09-01T02:51:29.666Z,16.70
2022-09-01T02:53:58.469Z,48.27
2022-09-01T02:56:27.582Z,18.83
2022-09-01T02:58:57.472Z,34.63
2022-09-01T03:01:29.411Z,10.43
2022-09-01T03:04:02.066Z,9.40
2022-09-01T03:06:31.374Z,10.00
2022-09-01T03:09:00.623Z,8.93
2022-09-01T03:11:30.720Z,9.90
2022-09-01T03:14:00.732Z,10.17
2022-09-01T03:16:31.233Z,12.00
2022-09-01T03:18:59.946Z,16.80
2022-09-01T03:21:29.465Z,9.20
2022-09-01T03:23:58.105Z,7.53
2022-09-01T03:26:26.165Z,10.70
2022-09-01T03:28:56.370Z,8.40
2022-09-01T03:31:31.039Z,7.00
2022-09-01T03:34:03.215Z,10.60
2022-09-01T03:36:34.811Z,11.93
2022-09-01T03:39:03.191Z,8.20
2022-09-01T03:41:33.171Z,7.03
2022-09-01T03:44:01.354Z,12.07
2022-09-01T03:46:36.948Z,7.30
2022-09-01T03:49:07.992Z,8.50
2022-09-01T03:51:39.174Z,7.50
2022-09-01T03:54:08.539Z,10.33
2022-09-01T03:56:38.974Z,8.93
2022-09-01T03:59:07.646Z,10.30
2022-09-01T04:01:40.884Z,8.80
2022-09-01T04:04:08.943Z,9.20
2022-09-01T04:06:38.571Z,9.37
2022-09-01T04:09:06.978Z,23.03
2022-09-01T04:11:39.036Z,9.97
2022-09-01T04:14:12.105Z,6.90
2022-09-01T04:17:01.287Z,11.20
2022-09-01T04:19:31.107Z,7.17
2022-09-01T04:22:01.140Z,7.90
2022-09-01T04:24:35.458Z,6.50
2022-09-01T04:27:07.255Z,7.00
2022-09-01T04:29:35.891Z,7.67
2022-09-01T04:32:12.683Z,7.40
2022-09-01T04:34:42.854Z,7.23
2022-09-01T04:37:15.387Z,8.60
2022-09-01T04:39:55.710Z,11.47
2022-09-01T04:42:26.997Z,7.23
2022-09-01T04:44:57.193Z,6.93
2022-09-01T04:47:35.478Z,7.90
2022-09-01T04:50:13.604Z,6.87
2022-09-01T04:52:42.977Z,8.57
2022-09-01T04:55:20.735Z,7.27
2022-09-01T04:57:50.641Z,8.37
2022-09-01T05:00:24.136Z,8.03
2022-09-01T05:02:55.375Z,10.17
2022-09-01T05:05:27.219Z,7.30
2022-09-01T05:07:56.694Z,8.97
2022-09-01T05:10:29.857Z,8.80
2022-09-01T05:13:18.490Z,9.20
2022-09-01T05:15:48.218Z,9.10
2022-09-01T05:18:23.351Z,7.30
2022-09-01T05:20:53.002Z,8.83
2022-09-01T05:23:23.451Z,9.13
2022-09-01T05:25:54.829Z,9.03
2022-09-01T05:28:25.191Z,7.23
2022-09-01T05:30:54.201Z,8.27
2022-09-01T05:33:24.579Z,8.63
2022-09-01T05:35:57.545Z,8.20
2022-09-01T05:38:25.975Z,7.37
2022-09-01T05:40:59.080Z,7.50
2022-09-01T05:43:29.773Z,7.93
2022-09-01T05:46:06.604Z,9.00
2022-09-01T05:48:39.768Z,7.80
2022-09-01T05:51:27.472Z,8.20
2022-09-01T05:54:00.165Z,11.60
2022-09-01T05:56:30.926Z,7.63
2022-09-01T06:01:50.850Z,10.63
2022-09-01T06:04:21.001Z,9.27
2022-09-01T06:07:07.729Z,8.03
2022-09-01T06:09:39.447Z,10.17
2022-09-01T06:12:09.099Z,8.80
2022-09-01T06:14:37.186Z,9.20
2022-09-01T06:17:06.632Z,10.00
2022-09-01T06:19:37.422Z,8.90
2022-09-01T06:22:06.546Z,12.90
2022-09-01T06:24:34.934Z,15.33
2022-09-01T06:27:03.007Z,8.53
2022-09-01T06:29:31.247Z,8.80
2022-09-01T06:32:02.258Z,10.10
2022-09-01T06:34:32.934Z,9.80
2022-09-01T06:37:02.492Z,10.87
2022-09-01T06:39:31.736Z,9.93
2022-09-01T06:42:01.080Z,10.80
2022-09-01T06:44:40.639Z,10.03
2022-09-01T06:47:10.222Z,15.70
2022-09-01T06:49:40.078Z,10.23
2022-09-01T06:52:15.970Z,9.30
2022-09-01T06:54:44.294Z,7.50
2022-09-01T07:00:04.357Z,12.23
2022-09-01T07:02:33.960Z,8.90
2022-09-01T07:08:17.791Z,8.00
2022-09-01T07:14:17.200Z,11.63
2022-09-01T07:16:51.810Z,6.30
2022-09-01T07:19:22.442Z,18.23
2022-09-01T07:22:35.140Z,11.53
2022-09-01T07:25:11.525Z,6.13
2022-09-01T07:27:59.781Z,6.10
2022-09-01T07:30:29.035Z,5.60
2022-09-01T07:33:41.299Z,5.07
2022-09-01T07:39:48.790Z,4.93
2022-09-01T07:44:40.015Z,3.97
2022-09-01T07:53:09.680Z,9.80
2022-09-01T07:55:41.213Z,5.70
2022-09-01T07:58:10.818Z,5.03
2022-09-01T08:00:39.971Z,4.50
2022-09-01T08:03:09.429Z,7.43
2022-09-01T08:05:37.736Z,2.97
2022-09-01T08:08:18.545Z,5.70
2022-09-01T08:10:49.394Z,4.00
2022-09-01T08:13:21.780Z,4.77
2022-09-01T08:16:07.452Z,3.60
2022-09-01T08:18:52.611Z,9.30
2022-09-01T08:21:50.168Z,8.50
2022-09-01T08:24:28.771Z,4.10
2022-09-01T08:26:57.082Z,9.50
2022-09-01T08:29:26.788Z,5.20
2022-09-01T08:31:54.856Z,2.93
2022-09-01T08:34:23.479Z,4.00
2022-09-01T08:36:51.837Z,3.17
2022-09-01T08:39:20.561Z,7.60
2022-09-01T08:41:59.236Z,4.40
2022-09-01T08:44:37.833Z,4.80
2022-09-01T08:47:13.024Z,3.17
2022-09-01T08:49:47.304Z,8.33
2022-09-01T08:52:30.262Z,2.80
2022-09-01T08:55:06.699Z,5.93
2022-09-01T08:57:37.716Z,5.03
2022-09-01T09:00:35.910Z,2.90
2022-09-01T09:03:20.599Z,7.23
2022-09-01T09:06:03.172Z,6.13
2022-09-01T09:08:56.658Z,3.20
2022-09-01T09:12:09.847Z,6.17
2022-09-01T09:15:01.598Z,5.70
2022-09-01T09:17:38.371Z,6.83
2022-09-01T09:20:08.856Z,3.10
2022-09-01T09:22:38.730Z,7.07
2022-09-01T09:25:09.492Z,3.77
2022-09-01T09:27:39.958Z,4.93
2022-09-01T09:30:12.757Z,5.70
2022-09-01T09:35:39.873Z,4.90
2022-09-01T09:38:24.368Z,6.27
2022-09-01T09:41:18.237Z,3.73
2022-09-01T09:43:49.972Z,13.63
2022-09-01T09:46:27.508Z,3.80
2022-09-01T09:49:13.680Z,8.57
2022-09-01T09:51:43.858Z,5.27
2022-09-01T09:54:15.283Z,5.80
2022-09-01T09:56:45.519Z,4.30
2022-09-01T09:59:45.794Z,6.37
2022-09-01T10:02:23.774Z,3.20
2022-09-01T10:04:57.550Z,4.00
2022-09-01T10:07:29.691Z,5.90
2022-09-01T10:10:00.427Z,9.80
2022-09-01T10:12:31.599Z,3.40
2022-09-01T10:15:06.923Z,3.27
2022-09-01T10:17:43.583Z,8.10
2022-09-01T10:20:18.850Z,4.07
2022-09-01T10:22:48.541Z,4.57
2022-09-01T10:25:21.665Z,17.93
2022-09-01T10:27:55.506Z,4.73
2022-09-01T10:30:26.531Z,4.90
2022-09-01T10:33:03.377Z,4.60
2022-09-01T10:35:44.346Z,5.20
2022-09-01T10:38:17.384Z,6.00
2022-09-01T10:40:50.042Z,4.80
2022-09-01T10:43:30.662Z,3.40
2022-09-01T10:46:15.592Z,6.73
2022-09-01T10:48:55.432Z,4.70
2022-09-01T10:51:51.482Z,4.37
2022-09-01T10:54:55.318Z,9.10
2022-09-01T10:57:45.577Z,3.90
2022-09-01T11:04:00.661Z,3.57
2022-09-01T11:07:17.213Z,4.70
2022-09-01T11:10:32.828Z,4.80
2022-09-01T11:13:25.618Z,9.97
2022-09-01T11:15:54.827Z,3.40
2022-09-01T11:18:29.396Z,4.00
2022-09-01T11:21:15.892Z,3.93
2022-09-01T11:23:46.979Z,5.17
2022-09-01T11:26:46.627Z,4.20
2022-09-01T11:29:48.562Z,3.33
2022-09-01T11:32:18.602Z,3.43
2022-09-01T11:34:49.366Z,3.43
2022-09-01T11:37:21.822Z,4.03
2022-09-01T11:39:55.594Z,3.50
2022-09-01T11:42:29.371Z,3.00
2022-09-01T11:45:03.014Z,4.23
2022-09-01T11:47:37.266Z,3.47
2022-09-01T11:50:09.623Z,3.10
2022-09-01T11:52:41.459Z,5.27
2022-09-01T11:55:12.106Z,3.50
2022-09-01T11:57:42.042Z,8.50
2022-09-01T12:00:13.197Z,3.23
2022-09-01T12:02:46.603Z,4.33
2022-09-01T12:05:28.472Z,5.80
2022-09-01T12:07:58.067Z,6.53
2022-09-01T12:10:34.193Z,3.90
2022-09-01T12:13:05.825Z,4.00
2022-09-01T12:15:36.614Z,10.80
2022-09-01T12:18:15.198Z,3.57
2022-09-01T12:20:43.506Z,3.07
2022-09-01T12:23:24.085Z,5.47
2022-09-01T12:25:55.707Z,4.57
2022-09-01T12:28:24.918Z,3.07
2022-09-01T12:30:55.345Z,3.53
2022-09-01T12:33:24.674Z,4.50
2022-09-01T12:35:57.459Z,3.43
2022-09-01T12:38:31.606Z,3.53
2022-09-01T12:41:00.994Z,3.10
2022-09-01T12:43:32.353Z,11.53
2022-09-01T12:46:02.892Z,4.47
2022-09-01T12:48:33.884Z,6.90
2022-09-01T12:51:04.190Z,4.83
2022-09-01T12:53:36.659Z,4.00
2022-09-01T12:56:24.485Z,5.67
2022-09-01T12:59:04.168Z,2.90
2022-09-01T13:01:35.034Z,12.60
2022-09-01T13:04:27.390Z,2.87
2022-09-01T13:06:57.862Z,4.93
2022-09-01T13:09:26.017Z,2.90
2022-09-01T13:12:09.730Z,3.03
2022-09-01T13:14:37.793Z,3.50
2022-09-01T13:17:06.314Z,6.50
2022-09-01T13:19:42.459Z,4.80
2022-09-01T13:22:10.695Z,5.40
2022-09-01T13:24:39.954Z,6.67
2022-09-01T13:27:20.870Z,3.13
2022-09-01T13:29:50.203Z,3.43
2022-09-01T13:32:20.851Z,4.30
2022-09-01T13:34:51.849Z,4.03
2022-09-01T13:37:20.619Z,2.87
2022-09-01T13:39:48.905Z,3.30
2022-09-01T13:42:19.165Z,4.20
2022-09-01T13:44:49.612Z,3.17
2022-09-01T13:47:35.462Z,4.63
2022-09-01T13:50:11.456Z,6.43
2022-09-01T13:52:41.086Z,3.20
2022-09-01T13:55:10.976Z,3.83
2022-09-01T13:57:40.553Z,5.83
2022-09-01T14:00:11.924Z,6.30
2022-09-01T14:02:42.907Z,3.63
2022-09-01T14:05:11.422Z,3.47
2022-09-01T14:07:39.464Z,3.00
2022-09-01T14:10:08.878Z,3.87
2022-09-01T14:12:37.322Z,5.33
2022-09-01T14:15:13.593Z,5.03
2022-09-01T14:17:44.687Z,2.70
2022-09-01T14:20:16.211Z,5.70
2022-09-01T14:22:44.275Z,4.57
2022-09-01T14:25:13.092Z,3.53
2022-09-01T14:27:42.733Z,6.33
2022-09-01T14:30:17.411Z,3.50
2022-09-01T14:32:45.723Z,2.60
2022-09-01T14:35:14.719Z,4.70
2022-09-01T14:37:44.047Z,2.60
2022-09-01T14:40:16.867Z,7.93
2022-09-01T14:42:47.566Z,3.50
2022-09-01T14:45:18.696Z,4.90
2022-09-01T14:47:48.238Z,6.30
2022-09-01T14:50:21.651Z,2.50
2022-09-01T14:52:53.799Z,3.00
2022-09-01T14:55:23.383Z,5.17
2022-09-01T14:57:52.212Z,5.47
2022-09-01T15:00:24.091Z,2.83
2022-09-01T15:02:52.729Z,2.50
2022-09-01T15:05:21.104Z,2.53
2022-09-01T15:07:49.566Z,3.60
2022-09-01T15:10:24.522Z,5.10
2022-09-01T15:12:54.856Z,2.50
2022-09-01T15:15:25.242Z,4.67
2022-09-01T15:17:53.613Z,3.07
2022-09-01T15:20:40.434Z,2.57
2022-09-01T15:23:08.712Z,3.00
2022-09-01T15:25:36.959Z,4.27
2022-09-01T15:28:05.189Z,3.20
2022-09-01T15:30:35.302Z,2.47
2022-09-01T15:33:04.291Z,4.10
2022-09-01T15:35:33.042Z,2.77
2022-09-01T15:38:01.370Z,3.93
2022-09-01T15:40:30.077Z,4.47
2022-09-01T15:42:59.928Z,5.23
2022-09-01T15:45:29.125Z,2.70
2022-09-01T15:47:58.599Z,2.50
2022-09-01T15:50:27.951Z,2.53
2022-09-01T15:52:58.787Z,5.00
2022-09-01T15:55:29.920Z,3.00
2022-09-01T15:57:59.211Z,5.47
2022-09-01T16:00:29.252Z,4.20
2022-09-01T16:03:01.770Z,4.23
2022-09-01T16:05:31.275Z,3.70
2022-09-01T16:08:01.233Z,4.10
2022-09-01T16:10:33.569Z,2.20
2022-09-01T16:13:04.959Z,3.00
2022-09-01T16:15:35.087Z,2.90
2022-09-01T16:18:26.717Z,2.30
2022-09-01T16:21:00.667Z,2.90
2022-09-01T16:23:35.445Z,3.60
2022-09-01T16:26:03.534Z,4.97
2022-09-01T16:28:34.163Z,2.70
2022-09-01T16:31:07.910Z,2.67
2022-09-01T16:36:17.696Z,5.50
2022-09-01T16:38:51.159Z,4.50
2022-09-01T16:41:39.615Z,4.97
2022-09-01T16:44:20.995Z,5.23
2022-09-01T16:46:55.545Z,3.30
2022-09-01T16:49:31.961Z,3.00
2022-09-01T16:52:05.580Z,3.23
2022-09-01T16:54:48.117Z,3.00
2022-09-01T16:57:24.491Z,4.60
2022-09-01T16:59:56.143Z,4.43
2022-09-01T17:02:41.736Z,3.00
2022-09-01T17:05:21.930Z,3.93
2022-09-01T17:08:06.010Z,3.80
2022-09-01T17:10:42.035Z,2.70
2022-09-01T17:13:22.736Z,6.60
2022-09-01T17:15:56.445Z,4.87
2022-09-01T17:18:34.663Z,3.50
2022-09-01T17:21:12.167Z,7.13
2022-09-01T17:23:51.487Z,4.83
2022-09-01T17:26:24.423Z,5.03
2022-09-01T17:28:56.572Z,6.80
2022-09-01T17:31:49.226Z,7.00
2022-09-01T17:34:29.146Z,5.60
2022-09-01T17:37:06.629Z,3.20
2022-09-01T17:39:49.322Z,4.53
2022-09-01T17:42:30.127Z,3.30
2022-09-01T17:45:09.963Z,3.30
2022-09-01T17:47:48.483Z,3.60
2022-09-01T17:50:22.806Z,8.80
2022-09-01T17:53:02.705Z,3.27
2022-09-01T17:55:47.083Z,3.90
2022-09-01T17:58:25.608Z,3.17
2022-09-01T18:01:00.093Z,4.67
2022-09-01T18:04:06.147Z,5.30
2022-09-01T18:06:46.998Z,4.40
2022-09-01T18:09:20.045Z,4.47
2022-09-01T18:11:51.976Z,3.83
2022-09-01T18:14:23.031Z,6.70
2022-09-01T18:17:00.553Z,3.90
2022-09-01T18:19:36.177Z,3.70
2022-09-01T18:22:09.027Z,4.30
2022-09-01T18:24:51.220Z,7.30
2022-09-01T18:27:19.541Z,4.70
2022-09-01T18:29:52.550Z,7.17
2022-09-01T18:32:37.864Z,3.80
2022-09-01T18:35:23.264Z,4.80
2022-09-01T18:38:04.646Z,4.07
2022-09-01T18:40:39.432Z,5.13
2022-09-01T18:43:14.467Z,4.40
2022-09-01T18:45:49.253Z,5.87
2022-09-01T18:48:27.743Z,5.10
2022-09-01T18:51:03.420Z,4.40
2022-09-01T18:53:41.859Z,4.20
2022-09-01T18:56:20.521Z,6.40
2022-09-01T18:59:04.984Z,4.37
2022-09-01T19:01:36.163Z,4.00
2022-09-01T19:04:14.066Z,4.30
2022-09-01T19:06:53.372Z,4.37
2022-09-01T19:09:30.227Z,3.97
2022-09-01T19:12:10.403Z,3.97
2022-09-01T19:14:49.310Z,5.33
2022-09-01T19:17:41.742Z,4.40
2022-09-01T19:20:12.632Z,3.87
2022-09-01T19:22:48.075Z,3.70
2022-09-01T19:25:37.470Z,4.03
2022-09-01T19:28:14.702Z,3.70
2022-09-01T19:30:48.812Z,9.87
2022-09-01T19:33:21.285Z,34.83
2022-09-01T19:35:51.985Z,4.00
2022-09-01T19:38:27.518Z,5.60
2022-09-01T19:41:00.575Z,6.03
2022-09-01T19:43:34.524Z,4.57
2022-09-01T19:46:13.835Z,3.37
2022-09-01T19:48:48.522Z,4.63
2022-09-01T19:51:20.836Z,4.13
2022-09-01T19:53:56.295Z,6.03
2022-09-01T19:56:29.091Z,6.20
2022-09-01T19:59:04.767Z,6.93
2022-09-01T20:01:41.659Z,13.77
2022-09-01T20:04:22.024Z,3.57
2022-09-01T20:06:56.568Z,5.50
2022-09-01T20:09:31.103Z,4.37
2022-09-01T20:12:15.148Z,5.23
2022-09-01T20:14:58.247Z,3.90
2022-09-01T20:17:34.142Z,8.10
2022-09-01T20:20:08.720Z,4.97
2022-09-01T20:22:46.281Z,3.60
2022-09-01T20:25:17.837Z,3.80
2022-09-01T20:27:56.330Z,4.80
2022-09-01T20:30:31.190Z,3.70
2022-09-01T20:33:05.004Z,3.63
2022-09-01T20:35:39.988Z,6.10
2022-09-01T20:38:36.672Z,3.63
2022-09-01T20:41:18.042Z,5.63
2022-09-01T20:43:52.107Z,4.33
2022-09-01T20:46:22.502Z,4.90
2022-09-01T20:48:51.046Z,3.13
2022-09-01T20:51:27.590Z,3.47
2022-09-01T20:54:08.951Z,3.37
2022-09-01T20:56:45.386Z,3.03
2022-09-01T20:59:22.907Z,6.60
2022-09-01T21:01:59.156Z,4.00
2022-09-01T21:04:43.535Z,6.33
2022-09-01T21:07:17.450Z,4.93
2022-09-01T21:09:59.815Z,3.57
2022-09-01T21:12:36.974Z,4.20
2022-09-01T21:15:28.711Z,3.67
2022-09-01T21:18:12.716Z,4.20
2022-09-01T21:20:50.987Z,4.37
2022-09-01T21:23:20.681Z,3.57
2022-09-01T21:25:49.710Z,7.03
2022-09-01T21:28:21.398Z,4.23
2022-09-01T21:30:54.357Z,3.27
2022-09-01T21:33:25.206Z,5.40
2022-09-01T21:35:54.072Z,4.87
2022-09-01T21:38:22.127Z,9.07
2022-09-01T21:40:51.583Z,4.30
2022-09-01T21:43:22.824Z,4.53
2022-09-01T21:45:51.229Z,7.23
2022-09-01T21:48:19.261Z,4.33
2022-09-01T21:50:48.965Z,4.83
2022-09-01T21:53:17.176Z,5.67
2022-09-01T21:55:45.270Z,4.20
2022-09-01T21:58:13.299Z,5.80
2022-09-01T22:00:43.275Z,4.40
2022-09-01T22:03:12.888Z,4.37
2022-09-01T22:05:42.309Z,4.43
2022-09-01T22:08:13.335Z,5.90
2022-09-01T22:10:44.686Z,5.33
2022-09-01T22:13:13.781Z,4.80
2022-09-01T22:15:43.554Z,4.10
2022-09-01T22:18:12.506Z,6.90
2022-09-01T22:20:40.934Z,6.77
2022-09-01T22:23:11.347Z,6.33
2022-09-01T22:25:42.999Z,4.27
2022-09-01T22:28:11.746Z,7.00
2022-09-01T22:30:46.210Z,7.60
2022-09-01T22:33:14.414Z,5.07
2022-09-01T22:35:43.518Z,6.53
2022-09-01T22:38:13.752Z,6.40
2022-09-01T22:40:45.827Z,6.00
2022-09-01T22:43:17.650Z,5.10
2022-09-01T22:45:46.467Z,8.43
2022-09-01T22:48:15.302Z,4.63
2022-09-01T22:50:45.359Z,4.70
2022-09-01T22:53:15.773Z,5.30
2022-09-01T22:55:47.916Z,5.70
2022-09-01T22:58:17.369Z,5.37
2022-09-01T23:00:48.442Z,4.67
2022-09-01T23:03:18.551Z,5.93
2022-09-01T23:05:47.402Z,8.20
2022-09-01T23:08:17.474Z,11.20
2022-09-01T23:10:45.714Z,7.67
2022-09-01T23:13:13.755Z,6.00
2022-09-01T23:15:42.645Z,6.60
2022-09-01T23:18:10.658Z,6.63
2022-09-01T23:20:38.687Z,5.37
2022-09-01T23:23:06.750Z,6.00
2022-09-01T23:25:36.246Z,5.20
2022-09-01T23:28:04.829Z,5.23
2022-09-01T23:30:32.890Z,9.13
2022-09-01T23:33:00.946Z,4.77
2022-09-01T23:35:29.603Z,4.97
2022-09-01T23:37:57.753Z,5.23
2022-09-01T23:40:25.874Z,8.83
2022-09-01T23:42:55.314Z,6.70
2022-09-01T23:45:23.585Z,5.03
2022-09-01T23:47:51.645Z,5.27
2022-09-01T23:50:22.522Z,4.80
2022-09-01T23:52:50.844Z,6.10
2022-09-01T23:55:19.341Z,9.70
2022-09-01T23:57:47.393Z,8.60
